Map

Track Data

SID SEASON NUMBER BASIN SUBBASIN NAME ISO_TIME NATURE LAT LON WMO_WIND WMO_PRES WMO_AGENCY TRACK_TYPE DIST2LAND LANDFALL IFLAG USA_AGENCY USA_ATCF_ID USA_LAT USA_LON USA_RECORD USA_STATUS USA_WIND USA_PRES USA_SSHS USA_R34_NE USA_R34_SE USA_R34_SW USA_R34_NW USA_R50_NE USA_R50_SE USA_R50_SW USA_R50_NW USA_R64_NE USA_R64_SE USA_R64_SW USA_R64_NW USA_POCI USA_ROCI USA_RMW USA_EYE TOKYO_LAT TOKYO_LON TOKYO_GRADE TOKYO_WIND TOKYO_PRES TOKYO_R50_DIR TOKYO_R50_LONG TOKYO_R50_SHORT TOKYO_R30_DIR TOKYO_R30_LONG TOKYO_R30_SHORT TOKYO_LAND CMA_LAT CMA_LON CMA_CAT CMA_WIND CMA_PRES HKO_LAT HKO_LON HKO_CAT HKO_WIND HKO_PRES NEWDELHI_LAT NEWDELHI_LON NEWDELHI_GRADE NEWDELHI_WIND NEWDELHI_PRES NEWDELHI_CI NEWDELHI_DP NEWDELHI_POCI REUNION_LAT REUNION_LON REUNION_TYPE REUNION_WIND REUNION_PRES REUNION_TNUM REUNION_CI REUNION_RMW REUNION_R34_NE REUNION_R34_SE REUNION_R34_SW REUNION_R34_NW REUNION_R50_NE REUNION_R50_SE REUNION_R50_SW REUNION_R50_NW REUNION_R64_NE REUNION_R64_SE REUNION_R64_SW REUNION_R64_NW BOM_LAT BOM_LON BOM_TYPE BOM_WIND BOM_PRES BOM_TNUM BOM_CI BOM_RMW BOM_R34_NE BOM_R34_SE BOM_R34_SW BOM_R34_NW BOM_R50_NE BOM_R50_SE BOM_R50_SW BOM_R50_NW BOM_R64_NE BOM_R64_SE BOM_R64_SW BOM_R64_NW BOM_ROCI BOM_POCI BOM_EYE BOM_POS_METHOD BOM_PRES_METHOD NADI_LAT NADI_LON NADI_CAT NADI_WIND NADI_PRES WELLINGTON_LAT WELLINGTON_LON WELLINGTON_WIND WELLINGTON_PRES DS824_LAT DS824_LON DS824_STAGE DS824_WIND DS824_PRES TD9636_LAT TD9636_LON TD9636_STAGE TD9636_WIND TD9636_PRES TD9635_LAT TD9635_LON TD9635_WIND TD9635_PRES TD9635_ROCI NEUMANN_LAT NEUMANN_LON NEUMANN_CLASS NEUMANN_WIND NEUMANN_PRES MLC_LAT MLC_LON MLC_CLASS MLC_WIND MLC_PRES USA_GUST BOM_GUST BOM_GUST_PER REUNION_GUST REUNION_GUST_PER USA_SEAHGT USA_SEARAD_NE USA_SEARAD_SE USA_SEARAD_SW USA_SEARAD_NW STORM_SPEED STORM_DIR
1990154N11260 1990 34 EP MM BORIS 1990-06-02 18:00:00 TS 10.7000 -100.300 25 1010 hurdat_epa main 652 608 O_____________ hurdat_epa EP021990 10.7000 -100.300 TD 25 1010 -1 16 320
1990154N11260 1990 34 EP MM BORIS 1990-06-02 21:00:00 TS 11.3153 -100.832 main 608 567 P_____________ EP021990 11.3153 -100.832 TD 25 1010 -1 16 318
1990154N11260 1990 34 EP MM BORIS 1990-06-03 00:00:00 TS 11.9000 -101.400 25 1010 hurdat_epa main 567 541 O_____________ hurdat_epa EP021990 11.9000 -101.400 TD 25 1010 -1 16 313
1990154N11260 1990 34 EP MM BORIS 1990-06-03 03:00:00 TS 12.4171 -102.040 main 541 532 P_____________ EP021990 12.4171 -102.040 TD 25 1009 -1 16 303
1990154N11260 1990 34 EP MM BORIS 1990-06-03 06:00:00 TS 12.8000 -102.800 25 1009 hurdat_epa main 535 533 O_____________ hurdat_epa EP021990 12.8000 -102.800 TD 25 1009 -1 17 290
1990154N11260 1990 34 EP MM BORIS 1990-06-03 09:00:00 TS 13.0173 -103.698 main 556 556 P_____________ EP021990 13.0173 -103.698 TD 27 1008 -1 19 279
1990154N11260 1990 34 EP MM BORIS 1990-06-03 12:00:00 TS 13.1000 -104.700 30 1008 hurdat_epa main 591 591 O_____________ hurdat_epa EP021990 13.1000 -104.700 TD 30 1008 -1 20 273
1990154N11260 1990 34 EP MM BORIS 1990-06-03 15:00:00 TS 13.1223 -105.743 main 627 627 P_____________ EP021990 13.1223 -105.743 TD 30 1007 -1 20 270
1990154N11260 1990 34 EP MM BORIS 1990-06-03 18:00:00 TS 13.1000 -106.800 30 1007 hurdat_epa main 680 680 O_____________ hurdat_epa EP021990 13.1000 -106.800 TD 30 1007 -1 21 269
1990154N11260 1990 34 EP MM BORIS 1990-06-03 21:00:00 TS 13.0851 -107.860 main 748 748 P_____________ EP021990 13.0851 -107.860 TD 32 1006 -1 20 270
1990154N11260 1990 34 EP MM BORIS 1990-06-04 00:00:00 TS 13.1000 -108.800 35 1005 hurdat_epa main 805 805 O_____________ hurdat_epa EP021990 13.1000 -108.800 TS 35 1005 0 16 274
1990154N11260 1990 34 EP MM BORIS 1990-06-04 03:00:00 TS 13.1921 -109.532 main 838 838 P_____________ EP021990 13.1921 -109.532 TS 40 1002 0 13 279
1990154N11260 1990 34 EP MM BORIS 1990-06-04 06:00:00 TS 13.3000 -110.100 45 1000 hurdat_epa main 869 869 O_____________ hurdat_epa EP021990 13.3000 -110.100 TS 45 1000 0 11 278
1990154N11260 1990 34 EP MM BORIS 1990-06-04 09:00:00 TS 13.3348 -110.603 main 905 905 P_____________ EP021990 13.3348 -110.603 TS 47 997 0 9 277
1990154N11260 1990 34 EP MM BORIS 1990-06-04 12:00:00 TS 13.4000 -111.000 50 995 hurdat_epa main 926 926 O_____________ hurdat_epa EP021990 13.4000 -111.000 TS 50 995 0 7 287
1990154N11260 1990 34 EP MM BORIS 1990-06-04 15:00:00 TS 13.5474 -111.330 main 941 933 P_____________ EP021990 13.5474 -111.330 TS 55 993 0 7 304
1990154N11260 1990 34 EP MM BORIS 1990-06-04 18:00:00 TS 13.8000 -111.600 60 992 hurdat_epa main 941 933 O_____________ hurdat_epa EP021990 13.8000 -111.600 TS 60 992 0 8 321
1990154N11260 1990 34 EP MM BORIS 1990-06-04 21:00:00 TS 14.1549 -111.843 main 925 919 P_____________ EP021990 14.1549 -111.843 TS 62 989 0 9 329
1990154N11260 1990 34 EP MM BORIS 1990-06-05 00:00:00 TS 14.6000 -112.100 65 987 hurdat_epa main 920 913 O_____________ hurdat_epa EP021990 14.6000 -112.100 HU 65 987 1 11 328
1990154N11260 1990 34 EP MM BORIS 1990-06-05 03:00:00 TS 15.0775 -112.442 main 908 867 P_____________ EP021990 15.0775 -112.442 HU 70 984 1 12 326
1990154N11260 1990 34 EP MM BORIS 1990-06-05 06:00:00 TS 15.6000 -112.800 75 981 hurdat_epa main 867 827 O_____________ hurdat_epa EP021990 15.6000 -112.800 HU 75 981 1 13 329
1990154N11260 1990 34 EP MM BORIS 1990-06-05 09:00:00 TS 16.1499 -113.108 main 827 779 P_____________ EP021990 16.1499 -113.108 HU 77 979 1 12 332
1990154N11260 1990 34 EP MM BORIS 1990-06-05 12:00:00 TS 16.7000 -113.400 80 977 hurdat_epa main 779 745 O_____________ hurdat_epa EP021990 16.7000 -113.400 HU 80 977 1 12 331
1990154N11260 1990 34 EP MM BORIS 1990-06-05 15:00:00 TS 17.2150 -113.715 main 745 715 P_____________ EP021990 17.2150 -113.715 HU 80 977 1 12 330
1990154N11260 1990 34 EP MM BORIS 1990-06-05 18:00:00 TS 17.7000 -114.000 80 978 hurdat_epa main 715 692 O_____________ hurdat_epa EP021990 17.7000 -114.000 HU 80 978 1 11 334
1990154N11260 1990 34 EP MM BORIS 1990-06-05 21:00:00 TS 18.1574 -114.208 main 683 663 P_____________ EP021990 18.1574 -114.208 HU 77 978 1 10 337
1990154N11260 1990 34 EP MM BORIS 1990-06-06 00:00:00 TS 18.6000 -114.400 75 979 hurdat_epa main 663 646 O_____________ hurdat_epa EP021990 18.6000 -114.400 HU 75 979 1 10 335
1990154N11260 1990 34 EP MM BORIS 1990-06-06 03:00:00 TS 19.0650 -114.657 main 646 633 P_____________ EP021990 19.0650 -114.657 HU 72 979 1 10 332
1990154N11260 1990 34 EP MM BORIS 1990-06-06 06:00:00 TS 19.5000 -114.900 70 980 hurdat_epa main 634 616 O_____________ hurdat_epa EP021990 19.5000 -114.900 HU 70 980 1 9 335
1990154N11260 1990 34 EP MM BORIS 1990-06-06 09:00:00 TS 19.8724 -115.065 main 616 594 P_____________ EP021990 19.8724 -115.065 HU 65 982 1 8 338
1990154N11260 1990 34 EP MM BORIS 1990-06-06 12:00:00 TS 20.2000 -115.200 60 985 hurdat_epa main 594 572 O_____________ hurdat_epa EP021990 20.2000 -115.200 TS 60 985 0 7 337
1990154N11260 1990 34 EP MM BORIS 1990-06-06 15:00:00 TS 20.5075 -115.350 main 578 558 P_____________ EP021990 20.5075 -115.350 TS 57 990 0 7 335
1990154N11260 1990 34 EP MM BORIS 1990-06-06 18:00:00 TS 20.8000 -115.500 55 995 hurdat_epa main 558 545 O_____________ hurdat_epa EP021990 20.8000 -115.500 TS 55 995 0 7 333
1990154N11260 1990 34 EP MM BORIS 1990-06-06 21:00:00 TS 21.1000 -115.672 main 545 528 P_____________ EP021990 21.1000 -115.672 TS 50 997 0 7 335
1990154N11260 1990 34 EP MM BORIS 1990-06-07 00:00:00 TS 21.4000 -115.800 45 1000 hurdat_epa main 528 505 O_____________ hurdat_epa EP021990 21.4000 -115.800 TS 45 1000 0 6 347
1990154N11260 1990 34 EP MM BORIS 1990-06-07 03:00:00 TS 21.7000 -115.823 main 505 482 P_____________ EP021990 21.7000 -115.823 TS 37 1003 0 6 1
1990154N11260 1990 34 EP MM BORIS 1990-06-07 06:00:00 TS 22.0000 -115.800 30 1006 hurdat_epa main 482 461 O_____________ hurdat_epa EP021990 22.0000 -115.800 TD 30 1006 -1 6 0
1990154N11260 1990 34 EP MM BORIS 1990-06-07 09:00:00 TS 22.3000 -115.807 main 461 441 P_____________ EP021990 22.3000 -115.807 TD 30 1006 -1 6 1
1990154N11260 1990 34 EP MM BORIS 1990-06-07 12:00:00 TS 22.6000 -115.800 30 1007 hurdat_epa main 441 414 O_____________ hurdat_epa EP021990 22.6000 -115.800 TD 30 1007 -1 6 7
1990154N11260 1990 34 EP MM BORIS 1990-06-07 15:00:00 TS 22.9075 -115.735 main 414 397 P_____________ EP021990 22.9075 -115.735 TD 27 1007 -1 6 8
1990154N11260 1990 34 EP MM BORIS 1990-06-07 18:00:00 TS 23.2000 -115.700 25 1008 hurdat_epa main 397 387 O_____________ hurdat_epa EP021990 23.2000 -115.700 TD 25 1008 -1 6 355
1990154N11260 1990 34 EP MM BORIS 1990-06-07 21:00:00 TS 23.4650 -115.770 main 392 388 P_____________ EP021990 23.4650 -115.770 TD 25 1008 -1 5 340
1990154N11260 1990 34 EP MM BORIS 1990-06-08 00:00:00 TS 23.7000 -115.900 25 1009 hurdat_epa main 394 391 O_____________ hurdat_epa EP021990 23.7000 -115.900 TD 25 1009 -1 5 332
1990154N11260 1990 34 EP MM BORIS 1990-06-08 03:00:00 TS 23.9149 -116.028 main 394 383 P_____________ EP021990 23.9149 -116.028 TD 22 1009 -1 5 326
1990154N11260 1990 34 EP MM BORIS 1990-06-08 06:00:00 TS 24.1000 -116.200 20 1010 hurdat_epa main 390 385 O_____________ hurdat_epa EP021990 24.1000 -116.200 TD 20 1010 -1 5 313
1990154N11260 1990 34 EP MM BORIS 1990-06-08 09:00:00 TS 24.2576 -116.432 main 380 380 P_____________ EP021990 24.2576 -116.432 TD 20 1010 -1 5 303
1990154N11260 1990 34 EP MM BORIS 1990-06-08 12:00:00 TS 24.4000 -116.700 20 1010 hurdat_epa main 388 O_____________ hurdat_epa EP021990 24.4000 -116.700 TD 20 1010 -1 6 300

About IBTrACS Database

This database is a web-friendly format of International Best Track Archive for Climate Stewardship (IBTrACS), a global best track data archive curated by NOAA dating back to 1842.

Updated: 2021-10-25